createdAt,value
2022-10-04T00:01:25.454Z,99148.12
2022-10-04T00:04:01.326Z,99143.77
2022-10-04T00:06:28.066Z,99146.25
2022-10-04T00:09:00.233Z,99145.94
2022-10-04T00:11:32.596Z,99141.29
2022-10-04T00:14:00.838Z,99141.80
2022-10-04T00:16:33.216Z,99135.56
2022-10-04T00:19:21.844Z,99135.75
2022-10-04T00:21:58.272Z,99134.70
2022-10-04T00:24:25.674Z,99133.64
2022-10-04T00:26:52.533Z,99136.08
2022-10-04T00:29:39.126Z,99139.30
2022-10-04T00:32:11.895Z,99139.88
2022-10-04T00:34:49.232Z,99145.88
2022-10-04T00:37:19.993Z,99147.91
2022-10-04T00:39:47.592Z,99151.80
2022-10-04T00:42:20.240Z,99147.64
2022-10-04T00:44:59.147Z,99151.33
2022-10-04T00:47:34.846Z,99154.45
2022-10-04T00:50:24.860Z,99157.27
2022-10-04T00:52:53.532Z,99155.88
2022-10-04T00:55:43.333Z,99156.42
2022-10-04T00:58:22.461Z,99156.31
2022-10-04T01:00:49.338Z,99156.15
2022-10-04T01:03:21.139Z,99156.06
2022-10-04T01:05:51.095Z,99157.41
2022-10-04T01:08:23.033Z,99158.35
2022-10-04T01:10:55.624Z,99154.30
2022-10-04T01:13:25.135Z,99155.92
2022-10-04T01:15:58.070Z,99157.23
2022-10-04T01:18:24.868Z,99155.59
2022-10-04T01:21:10.330Z,99159.29
2022-10-04T01:23:38.393Z,99158.85
2022-10-04T01:26:05.842Z,99160.25
2022-10-04T01:28:34.042Z,99157.39
2022-10-04T01:31:00.859Z,99164.98
2022-10-04T01:33:27.550Z,99163.52
2022-10-04T01:35:54.497Z,99164.80
2022-10-04T01:38:21.190Z,99164.06
2022-10-04T01:40:55.010Z,99168.40
2022-10-04T01:43:27.958Z,99165.10
2022-10-04T01:45:58.629Z,99164.23
2022-10-04T01:48:27.767Z,99164.00
2022-10-04T01:50:59.731Z,99164.29
2022-10-04T01:53:35.578Z,99171.30
2022-10-04T01:56:13.461Z,99179.00
2022-10-04T01:58:43.209Z,99170.38
2022-10-04T02:01:32.126Z,99174.26
2022-10-04T02:04:23.740Z,99179.14
2022-10-04T02:06:54.204Z,99184.21
2022-10-04T02:09:24.235Z,99183.66
2022-10-04T02:11:52.723Z,99188.27
2022-10-04T02:14:22.154Z,99193.86
2022-10-04T02:16:52.364Z,99189.81
2022-10-04T02:19:22.969Z,99188.08
2022-10-04T02:21:49.794Z,99188.42
2022-10-04T02:24:16.643Z,99191.68
2022-10-04T02:26:49.422Z,99195.51
2022-10-04T02:29:17.247Z,99193.05
2022-10-04T02:32:02.536Z,99199.43
2022-10-04T02:34:29.659Z,99201.15
2022-10-04T02:36:56.390Z,99204.14
2022-10-04T02:39:27.652Z,99205.58
2022-10-04T02:41:57.512Z,99209.30
2022-10-04T02:44:26.779Z,99211.70
2022-10-04T02:47:05.275Z,99213.16
2022-10-04T02:49:41.102Z,99213.23
2022-10-04T02:52:10.465Z,99214.25
2022-10-04T02:54:42.322Z,99216.02
2022-10-04T02:57:16.887Z,99219.59
2022-10-04T02:59:43.651Z,99220.50
2022-10-04T03:02:28.969Z,99218.84
2022-10-04T03:05:00.519Z,99226.64
2022-10-04T03:07:27.273Z,99230.48
2022-10-04T03:09:53.988Z,99232.55
2022-10-04T03:12:22.217Z,99240.70
2022-10-04T03:14:48.967Z,99248.01
2022-10-04T03:17:15.999Z,99266.27
2022-10-04T03:19:44.481Z,99265.61
2022-10-04T03:22:11.746Z,99269.77
2022-10-04T03:24:53.522Z,99267.24
2022-10-04T03:27:26.457Z,99267.55
2022-10-04T03:29:58.266Z,99269.33
2022-10-04T03:32:25.942Z,99268.04
2022-10-04T03:34:55.852Z,99271.45
2022-10-04T03:37:22.485Z,99274.83
2022-10-04T03:39:50.470Z,99284.39
2022-10-04T03:42:25.862Z,99291.77
2022-10-04T03:44:55.388Z,99295.82
2022-10-04T03:47:31.017Z,99301.00
2022-10-04T03:49:59.224Z,99301.81
2022-10-04T03:52:27.487Z,99297.33
2022-10-04T03:54:55.301Z,99297.55
2022-10-04T03:57:22.815Z,99298.23
2022-10-04T03:59:50.640Z,99297.45
2022-10-04T04:02:46.012Z,99304.14
2022-10-04T04:05:39.379Z,99301.16
2022-10-04T04:08:14.716Z,99306.34
2022-10-04T04:10:50.424Z,99307.55
2022-10-04T04:13:23.404Z,99310.30
2022-10-04T04:15:50.251Z,99313.79
2022-10-04T04:18:19.484Z,99316.66
2022-10-04T04:20:46.187Z,99320.95
2022-10-04T04:23:22.816Z,99325.90
2022-10-04T04:25:51.125Z,99330.89
2022-10-04T04:28:35.383Z,99332.13
2022-10-04T04:31:05.793Z,99336.41
2022-10-04T04:33:36.566Z,99342.50
2022-10-04T04:36:05.308Z,99338.73
2022-10-04T04:38:32.681Z,99340.82
2022-10-04T04:40:59.603Z,99349.91
2022-10-04T04:43:26.910Z,99346.66
2022-10-04T04:46:14.955Z,99346.77
2022-10-04T04:48:45.232Z,99346.20
2022-10-04T04:51:14.795Z,99349.66
2022-10-04T04:53:42.855Z,99355.05
2022-10-04T04:56:11.109Z,99357.91
2022-10-04T04:58:41.568Z,99363.91
2022-10-04T05:01:41.178Z,99368.42
2022-10-04T05:04:13.941Z,99370.85
2022-10-04T05:06:42.108Z,99375.70
2022-10-04T05:09:34.846Z,99378.91
2022-10-04T05:12:15.059Z,99384.66
2022-10-04T05:14:46.260Z,99387.23
2022-10-04T05:17:25.129Z,99390.81
2022-10-04T05:19:52.919Z,99393.36
2022-10-04T05:22:22.332Z,99399.82
2022-10-04T05:24:52.339Z,99401.98
2022-10-04T05:27:38.418Z,99405.30
2022-10-04T05:30:14.704Z,99412.02
2022-10-04T05:32:53.999Z,99412.85
2022-10-04T05:35:22.070Z,99414.94
2022-10-04T05:37:58.176Z,99418.85
2022-10-04T05:40:37.092Z,99424.32
2022-10-04T05:43:25.456Z,99423.72
2022-10-04T05:46:30.673Z,99428.04
2022-10-04T05:49:16.862Z,99428.08
2022-10-04T05:52:01.185Z,99433.95
2022-10-04T05:54:31.060Z,99436.02
2022-10-04T05:57:20.626Z,99433.14
2022-10-04T06:00:01.887Z,99439.13
2022-10-04T06:03:07.342Z,99438.17
2022-10-04T06:05:50.773Z,99436.70
2022-10-04T06:08:27.221Z,99440.67
2022-10-04T06:11:06.321Z,99449.02
2022-10-04T06:13:59.394Z,99452.59
2022-10-04T06:16:42.419Z,99456.21
2022-10-04T06:19:39.938Z,99465.58
2022-10-04T06:22:16.987Z,99464.70
2022-10-04T06:24:47.087Z,99470.53
2022-10-04T06:27:26.073Z,99469.11
2022-10-04T06:30:04.172Z,99478.65
2022-10-04T06:32:55.294Z,99478.30
2022-10-04T06:35:46.883Z,99484.16
2022-10-04T06:38:35.354Z,99487.10
2022-10-04T06:41:10.357Z,99493.11
2022-10-04T06:44:15.061Z,99499.84
2022-10-04T06:46:50.110Z,99504.89
2022-10-04T06:49:35.694Z,99510.72
2022-10-04T06:52:27.024Z,99514.09
2022-10-04T06:55:09.453Z,99513.73
2022-10-04T06:58:08.673Z,99516.93
2022-10-04T07:00:41.925Z,99518.27
2022-10-04T07:03:51.549Z,99517.46
2022-10-04T07:06:24.393Z,99518.79
2022-10-04T07:08:52.274Z,99523.01
2022-10-04T07:11:34.209Z,99525.25
2022-10-04T07:14:05.186Z,99528.20
2022-10-04T07:16:38.388Z,99531.86
2022-10-04T07:19:12.997Z,99535.43
2022-10-04T07:21:48.045Z,99533.48
2022-10-04T07:24:21.381Z,99541.13
2022-10-04T07:26:49.417Z,99544.20
2022-10-04T07:29:22.098Z,99548.77
2022-10-04T07:31:53.499Z,99551.52
2022-10-04T07:34:26.969Z,99559.17
2022-10-04T07:36:55.527Z,99566.85
2022-10-04T07:39:29.369Z,99570.60
2022-10-04T07:42:18.845Z,99574.22
2022-10-04T07:44:48.707Z,99578.20
2022-10-04T07:47:23.847Z,99582.07
2022-10-04T07:49:50.634Z,99589.58
2022-10-04T07:52:32.945Z,99588.17
2022-10-04T07:55:11.796Z,99591.63
2022-10-04T07:57:50.749Z,99596.09
2022-10-04T08:00:22.148Z,99599.02
2022-10-04T08:03:16.953Z,99606.65
2022-10-04T08:05:49.645Z,99609.60
2022-10-04T08:08:22.805Z,99610.56
2022-10-04T08:11:14.687Z,99608.29
2022-10-04T08:13:58.500Z,99610.73
2022-10-04T08:16:28.187Z,99612.21
2022-10-04T08:19:06.656Z,99618.13
2022-10-04T08:21:41.257Z,99618.05
2022-10-04T08:24:24.999Z,99620.56
2022-10-04T08:27:04.590Z,99624.71
2022-10-04T08:29:49.718Z,99625.06
2022-10-04T08:32:35.815Z,99628.60
2022-10-04T08:35:06.035Z,99632.98
2022-10-04T08:37:46.220Z,99633.06
2022-10-04T08:40:35.889Z,99636.25
2022-10-04T08:43:28.289Z,99640.30
2022-10-04T08:46:36.414Z,99640.52
2022-10-04T08:49:22.190Z,99645.52
2022-10-04T08:51:57.723Z,99649.18
2022-10-04T08:54:43.429Z,99652.51
2022-10-04T08:57:20.685Z,99652.03
2022-10-04T09:00:06.900Z,99657.48
2022-10-04T09:03:11.806Z,99662.46
2022-10-04T09:05:49.549Z,99665.73
2022-10-04T09:08:40.774Z,99668.85
2022-10-04T09:11:30.550Z,99674.23
2022-10-04T09:14:20.614Z,99676.23
2022-10-04T09:17:07.865Z,99679.44
2022-10-04T09:20:19.770Z,99681.83
2022-10-04T09:23:08.961Z,99683.28
2022-10-04T09:26:14.314Z,99686.45
2022-10-04T09:28:50.354Z,99693.89
2022-10-04T09:31:55.267Z,99699.34
2022-10-04T09:34:36.419Z,99701.20
2022-10-04T09:37:29.171Z,99704.34
2022-10-04T09:40:11.175Z,99705.86
2022-10-04T09:43:05.232Z,99706.83
2022-10-04T09:45:51.691Z,99718.16
2022-10-04T09:48:56.404Z,99718.18
2022-10-04T09:51:42.391Z,99715.36
2022-10-04T09:54:28.393Z,99720.08
2022-10-04T09:57:17.120Z,99725.17
2022-10-04T09:59:56.426Z,99722.92
2022-10-04T10:02:48.224Z,99726.49
2022-10-04T10:05:33.646Z,99734.34
2022-10-04T10:08:28.513Z,99738.11
2022-10-04T10:11:52.640Z,99739.82
2022-10-04T10:14:46.209Z,99749.47
2022-10-04T10:17:37.276Z,99749.64
2022-10-04T10:20:27.577Z,99752.03
2022-10-04T10:23:22.205Z,99754.71
2022-10-04T10:26:14.839Z,99757.29
2022-10-04T10:29:20.048Z,99763.70
2022-10-04T10:32:07.843Z,99763.99
2022-10-04T10:34:35.299Z,99772.36
2022-10-04T10:37:10.043Z,99778.98
2022-10-04T10:40:00.922Z,99777.52
2022-10-04T10:42:27.660Z,99774.09
2022-10-04T10:45:17.055Z,99774.59
2022-10-04T10:47:51.664Z,99769.83
2022-10-04T10:50:55.973Z,99771.72
2022-10-04T10:53:31.816Z,99769.84
2022-10-04T10:55:59.054Z,99774.63
2022-10-04T10:58:47.913Z,99770.90
2022-10-04T11:01:31.863Z,99775.27
2022-10-04T11:04:24.028Z,99775.57
2022-10-04T11:06:56.036Z,99773.76
2022-10-04T11:09:27.368Z,99776.13
2022-10-04T11:12:05.679Z,99776.73
2022-10-04T11:14:47.251Z,99777.30
2022-10-04T11:17:41.869Z,99778.21
2022-10-04T11:20:28.190Z,99780.96
2022-10-04T11:23:26.228Z,99781.45
2022-10-04T11:26:22.591Z,99785.52
2022-10-04T11:29:07.511Z,99789.48
2022-10-04T11:32:19.516Z,99789.02
2022-10-04T11:35:15.227Z,99788.34
2022-10-04T11:38:01.014Z,99793.98
2022-10-04T11:43:55.284Z,99796.38
2022-10-04T11:46:50.815Z,99801.74
2022-10-04T11:49:36.513Z,99802.29
2022-10-04T11:52:28.259Z,99803.95
2022-10-04T11:55:24.076Z,99808.68
2022-10-04T11:58:14.673Z,99808.96
2022-10-04T12:01:05.115Z,99810.92
2022-10-04T12:04:00.247Z,99809.88
2022-10-04T12:06:46.156Z,99810.20
2022-10-04T12:09:40.425Z,99809.09
2022-10-04T12:12:38.216Z,99810.08
2022-10-04T12:15:38.533Z,99812.51
2022-10-04T12:18:27.254Z,99811.83
2022-10-04T12:21:15.506Z,99813.42
2022-10-04T12:23:47.488Z,99817.02
2022-10-04T12:26:34.346Z,99817.84
2022-10-04T12:30:00.202Z,99821.77
2022-10-04T12:32:34.068Z,99822.98
2022-10-04T12:35:26.629Z,99824.22
2022-10-04T12:38:14.548Z,99822.31
2022-10-04T12:41:12.830Z,99818.91
2022-10-04T12:43:47.259Z,99824.19
2022-10-04T12:46:53.130Z,99823.83
2022-10-04T12:49:38.462Z,99824.88
2022-10-04T12:52:21.476Z,99822.98
2022-10-04T12:55:21.480Z,99822.09
2022-10-04T12:57:54.020Z,99823.24
2022-10-04T13:00:25.079Z,99827.92
2022-10-04T13:03:22.436Z,99824.66
2022-10-04T13:06:15.048Z,99826.61
2022-10-04T13:09:02.868Z,99835.02
2022-10-04T13:11:51.574Z,99837.98
2022-10-04T13:14:29.490Z,99852.24
2022-10-04T13:17:36.333Z,99861.52
2022-10-04T13:20:26.184Z,99869.04
2022-10-04T13:23:15.277Z,99878.02
2022-10-04T13:25:52.955Z,99880.80
2022-10-04T13:28:47.411Z,99888.88
2022-10-04T13:31:32.960Z,99890.44
2022-10-04T13:34:15.109Z,99893.02
2022-10-04T13:36:57.593Z,99897.95
2022-10-04T13:39:28.665Z,99903.63
2022-10-04T13:42:12.733Z,99908.06
2022-10-04T13:44:57.924Z,99909.77
2022-10-04T13:47:47.945Z,99912.09
2022-10-04T13:50:14.644Z,99914.59
2022-10-04T13:53:21.385Z,99917.13
2022-10-04T13:56:13.019Z,99923.35
2022-10-04T13:58:53.260Z,99920.80
2022-10-04T14:01:47.420Z,99923.39
2022-10-04T14:04:44.966Z,99928.57
2022-10-04T14:07:34.604Z,99931.77
2022-10-04T14:10:02.568Z,99937.20
2022-10-04T14:13:27.090Z,99939.41
2022-10-04T14:16:15.841Z,99948.84
2022-10-04T14:18:48.624Z,99957.80
2022-10-04T14:21:36.806Z,99957.90
2022-10-04T14:24:09.498Z,99963.63
2022-10-04T14:27:04.346Z,99970.11
2022-10-04T14:30:01.280Z,99973.10
2022-10-04T14:32:48.448Z,99970.70
2022-10-04T14:35:15.134Z,99978.09
2022-10-04T14:38:08.331Z,99977.98
2022-10-04T14:40:43.396Z,99978.75
2022-10-04T14:43:28.388Z,99975.41
2022-10-04T14:46:14.096Z,99978.81
2022-10-04T14:48:51.496Z,99978.98
2022-10-04T14:51:26.573Z,99977.69
2022-10-04T14:54:18.170Z,99983.86
2022-10-04T14:57:16.701Z,99991.20
2022-10-04T14:59:59.105Z,99990.48
2022-10-04T15:02:32.710Z,99997.20
2022-10-04T15:05:08.624Z,100001.73
2022-10-04T15:07:37.028Z,100003.42
2022-10-04T15:10:10.878Z,100005.75
2022-10-04T15:13:09.266Z,100009.98
2022-10-04T15:16:02.738Z,100013.56
2022-10-04T15:18:52.320Z,100018.51
2022-10-04T15:21:32.660Z,100020.39
2022-10-04T15:24:11.190Z,100027.33
2022-10-04T15:26:51.149Z,100031.96
2022-10-04T15:29:44.716Z,100034.36
2022-10-04T15:32:15.963Z,100034.33
2022-10-04T15:34:53.275Z,100031.99
2022-10-04T15:37:30.041Z,100039.58
2022-10-04T15:40:13.168Z,100043.92
2022-10-04T15:42:41.864Z,100043.69
2022-10-04T15:45:17.809Z,100043.31
2022-10-04T15:48:21.164Z,100044.73
2022-10-04T15:51:42.688Z,100049.33
2022-10-04T15:54:52.219Z,100053.77
2022-10-04T15:57:41.669Z,100063.45
2022-10-04T16:00:12.075Z,100066.60
2022-10-04T16:02:53.463Z,100069.25
2022-10-04T16:05:30.011Z,100076.83
2022-10-04T16:08:03.708Z,100077.16
2022-10-04T16:10:52.439Z,100077.78
2022-10-04T16:13:40.299Z,100079.67
2022-10-04T16:16:20.443Z,100085.49
2022-10-04T16:19:05.687Z,100082.50
2022-10-04T16:21:44.967Z,100091.20
2022-10-04T16:24:18.314Z,100095.84
2022-10-04T16:26:45.725Z,100094.02
2022-10-04T16:29:34.068Z,100100.69
2022-10-04T16:32:22.633Z,100105.75
2022-10-04T16:35:16.847Z,100107.16
2022-10-04T16:37:57.802Z,100110.48
2022-10-04T16:40:46.972Z,100110.16
2022-10-04T16:43:17.367Z,100116.61
2022-10-04T16:45:53.439Z,100124.56
2022-10-04T16:48:26.969Z,100122.08
2022-10-04T16:51:04.394Z,100119.47
2022-10-04T16:54:05.178Z,100127.13
2022-10-04T16:56:51.761Z,100131.77
2022-10-04T16:59:38.994Z,100132.60
2022-10-04T17:03:02.031Z,100135.71
2022-10-04T17:05:47.566Z,100133.60
2022-10-04T17:08:20.505Z,100136.44
2022-10-04T17:10:50.268Z,100137.26
2022-10-04T17:13:32.187Z,100136.50
2022-10-04T17:16:15.222Z,100131.51
2022-10-04T17:18:48.124Z,100137.40
2022-10-04T17:21:28.929Z,100136.56
2022-10-04T17:24:11.286Z,100143.15
2022-10-04T17:26:42.471Z,100145.55
2022-10-04T17:29:16.049Z,100146.60
2022-10-04T17:31:58.476Z,100147.95
2022-10-04T17:35:03.214Z,100150.81
2022-10-04T17:38:02.842Z,100162.96
2022-10-04T17:41:14.511Z,100167.15
2022-10-04T17:43:44.808Z,100176.75
2022-10-04T17:46:24.190Z,100179.80
2022-10-04T17:49:18.551Z,100185.70
2022-10-04T17:52:05.348Z,100192.40
2022-10-04T17:54:55.787Z,100201.57
2022-10-04T17:57:30.777Z,100194.32
2022-10-04T18:00:09.500Z,100191.52
2022-10-04T18:02:48.622Z,100190.62
2022-10-04T18:05:21.849Z,100196.17
2022-10-04T18:07:54.048Z,100195.92
2022-10-04T18:10:33.950Z,100197.27
2022-10-04T18:13:05.804Z,100200.42
2022-10-04T18:15:35.942Z,100202.48
2022-10-04T18:18:08.119Z,100208.23
2022-10-04T18:20:56.606Z,100211.87
2022-10-04T18:23:28.420Z,100213.66
2022-10-04T18:25:59.132Z,100214.21
2022-10-04T18:28:26.084Z,100215.63
2022-10-04T18:31:00.547Z,100218.27
2022-10-04T18:33:39.842Z,100219.00
2022-10-04T18:36:31.332Z,100222.41
2022-10-04T18:39:13.134Z,100223.56
2022-10-04T18:41:53.286Z,100221.77
2022-10-04T18:44:42.096Z,100219.20
2022-10-04T18:47:15.537Z,100220.02
2022-10-04T18:49:48.577Z,100223.49
2022-10-04T18:52:25.357Z,100221.72
2022-10-04T18:55:01.337Z,100219.77
2022-10-04T18:58:11.117Z,100214.77
2022-10-04T19:00:59.814Z,100210.79
2022-10-04T19:03:45.141Z,100209.73
2022-10-04T19:06:15.338Z,100212.80
2022-10-04T19:08:54.840Z,100214.53
2022-10-04T19:11:43.807Z,100216.96
2022-10-04T19:14:35.652Z,100217.81
2022-10-04T19:17:27.430Z,100225.83
2022-10-04T19:20:19.069Z,100232.42
2022-10-04T19:23:25.112Z,100227.59
2022-10-04T19:26:30.639Z,100231.38
2022-10-04T19:28:52.420Z,100235.42
2022-10-04T19:31:38.310Z,100235.08
2022-10-04T19:34:12.765Z,100239.43
2022-10-04T19:37:01.966Z,100242.41
2022-10-04T19:39:39.603Z,100247.98
2022-10-04T19:42:39.239Z,100252.64
2022-10-04T19:45:24.985Z,100254.29
2022-10-04T19:47:58.525Z,100257.83
2022-10-04T19:50:31.501Z,100266.23
2022-10-04T19:53:23.637Z,100265.58
2022-10-04T19:55:58.266Z,100273.94
2022-10-04T19:58:41.636Z,100276.59
2022-10-04T20:01:13.862Z,100281.24
2022-10-04T20:03:41.129Z,100279.47
2022-10-04T20:06:08.315Z,100283.34
2022-10-04T20:08:48.192Z,100282.58
2022-10-04T20:11:35.734Z,100286.23
2022-10-04T20:14:08.722Z,100294.29
2022-10-04T20:17:05.059Z,100296.54
2022-10-04T20:19:31.879Z,100298.54
2022-10-04T20:22:08.235Z,100301.27
2022-10-04T20:24:38.177Z,100306.56
2022-10-04T20:27:11.979Z,100307.70
2022-10-04T20:29:38.708Z,100310.61
2022-10-04T20:32:38.589Z,100322.02
2022-10-04T20:35:14.043Z,100313.25
2022-10-04T20:37:43.975Z,100314.40
2022-10-04T20:40:26.622Z,100320.58
2022-10-04T20:43:22.965Z,100323.45
2022-10-04T20:45:55.031Z,100332.30
2022-10-04T20:48:23.987Z,100337.69
2022-10-04T20:50:51.038Z,100344.13
2022-10-04T20:53:25.370Z,100343.43
2022-10-04T20:56:07.754Z,100345.02
2022-10-04T20:58:37.468Z,100353.52
2022-10-04T21:01:20.334Z,100355.91
2022-10-04T21:03:48.922Z,100358.05
2022-10-04T21:06:16.889Z,100358.05
2022-10-04T21:08:43.836Z,100357.54
2022-10-04T21:11:20.297Z,100359.36
2022-10-04T21:14:00.372Z,100356.61
2022-10-04T21:16:40.915Z,100354.79
2022-10-04T21:19:32.787Z,100358.23
2022-10-04T21:22:00.814Z,100365.04
2022-10-04T21:24:41.664Z,100366.95
2022-10-04T21:27:12.535Z,100373.60
2022-10-04T21:29:39.484Z,100384.23
2022-10-04T21:32:06.402Z,100383.30
2022-10-04T21:37:20.007Z,100383.80
2022-10-04T21:39:46.831Z,100382.34
2022-10-04T21:42:13.515Z,100383.84
2022-10-04T21:44:40.301Z,100389.61
2022-10-04T21:47:06.916Z,100390.28
2022-10-04T21:49:33.634Z,100389.55
2022-10-04T21:52:00.311Z,100398.82
2022-10-04T21:54:26.985Z,100400.59
2022-10-04T21:56:54.076Z,100404.02
2022-10-04T21:59:21.194Z,100399.05
2022-10-04T22:01:47.870Z,100401.11
2022-10-04T22:04:14.618Z,100406.07
2022-10-04T22:06:42.901Z,100405.57
2022-10-04T22:09:09.963Z,100410.37
2022-10-04T22:11:36.758Z,100401.69
2022-10-04T22:14:03.421Z,100395.05
2022-10-04T22:16:30.103Z,100392.77
2022-10-04T22:18:56.832Z,100400.33
2022-10-04T22:21:23.524Z,100404.89
2022-10-04T22:23:50.123Z,100408.94
2022-10-04T22:26:18.572Z,100404.47
2022-10-04T22:28:49.990Z,100409.73
2022-10-04T22:31:18.474Z,100410.77
2022-10-04T22:33:45.967Z,100407.39
2022-10-04T22:36:27.060Z,100410.49
2022-10-04T22:39:00.765Z,100412.86
2022-10-04T22:41:29.301Z,100414.59
2022-10-04T22:43:57.012Z,100416.14
2022-10-04T22:46:23.839Z,100418.61
2022-10-04T22:48:50.568Z,100420.95
2022-10-04T22:51:17.240Z,100418.75
2022-10-04T22:53:45.212Z,100421.79
2022-10-04T22:56:13.066Z,100422.05
2022-10-04T22:58:40.508Z,100425.52
2022-10-04T23:01:15.222Z,100427.83
2022-10-04T23:03:45.229Z,100427.48
2022-10-04T23:06:14.343Z,100425.96
2022-10-04T23:08:41.778Z,100430.73
2022-10-04T23:11:08.686Z,100427.92
2022-10-04T23:13:35.371Z,100429.20
2022-10-04T23:16:10.501Z,100429.34
2022-10-04T23:18:37.177Z,100436.48
2022-10-04T23:21:08.888Z,100437.67
2022-10-04T23:23:35.524Z,100439.27
2022-10-04T23:26:02.176Z,100447.52
2022-10-04T23:28:28.930Z,100450.79
2022-10-04T23:31:02.789Z,100455.06
2022-10-04T23:33:29.914Z,100457.79
2022-10-04T23:35:57.599Z,100455.02
2022-10-04T23:38:24.849Z,100454.11
2022-10-04T23:40:51.789Z,100460.46
2022-10-04T23:43:21.572Z,100465.05
2022-10-04T23:45:48.342Z,100458.08
2022-10-04T23:48:21.153Z,100454.20
2022-10-04T23:50:47.930Z,100458.48
2022-10-04T23:53:23.328Z,100466.45
2022-10-04T23:55:50.262Z,100468.02
2022-10-04T23:58:18.183Z,100467.64
